createdAt,value
2019-04-04T00:04:08.141Z,7.60
2019-04-04T00:09:15.664Z,4.90
2019-04-04T00:14:22.031Z,4.33
2019-04-04T00:19:30.006Z,5.60
2019-04-04T00:24:36.285Z,4.90
2019-04-04T00:29:42.729Z,5.73
2019-04-04T00:34:49.316Z,6.30
2019-04-04T00:39:55.755Z,6.23
2019-04-04T00:45:02.118Z,6.30
2019-04-04T00:50:09.698Z,5.87
2019-04-04T00:55:16.389Z,6.07
2019-04-04T01:00:25.559Z,6.27
2019-04-04T01:05:32.551Z,6.47
2019-04-04T01:10:39.291Z,6.43
2019-04-04T01:15:45.600Z,6.50
2019-04-04T01:20:51.850Z,7.27
2019-04-04T01:25:58.139Z,6.33
2019-04-04T01:31:05.820Z,7.67
2019-04-04T01:36:12.039Z,6.33
2019-04-04T01:41:18.804Z,7.57
2019-04-04T01:46:25.051Z,7.43
2019-04-04T01:51:31.274Z,6.47
2019-04-04T01:56:37.718Z,6.07
2019-04-04T02:01:46.693Z,7.47
2019-04-04T02:06:52.091Z,6.90
2019-04-04T02:11:58.363Z,7.10
2019-04-04T02:17:04.754Z,6.93
2019-04-04T02:22:11.011Z,6.90
2019-04-04T02:27:17.384Z,6.60
2019-04-04T02:32:26.615Z,8.57
2019-04-04T02:37:32.465Z,7.40
2019-04-04T02:42:38.996Z,6.80
2019-04-04T02:47:45.227Z,7.17
2019-04-04T02:52:51.552Z,7.00
2019-04-04T02:57:57.883Z,7.30
2019-04-04T03:03:08.206Z,7.17
2019-04-04T03:08:12.374Z,7.33
2019-04-04T03:13:18.626Z,7.00
2019-04-04T03:18:24.955Z,6.70
2019-04-04T03:23:33.814Z,7.03
2019-04-04T03:28:39.624Z,7.03
2019-04-04T03:33:45.980Z,7.50
2019-04-04T03:38:52.280Z,7.27
2019-04-04T03:43:58.515Z,7.17
2019-04-04T03:49:05.675Z,7.65
2019-04-04T03:54:15.621Z,7.60
2019-04-04T03:59:22.004Z,9.73
2019-04-04T04:04:28.585Z,8.33
2019-04-04T04:09:34.903Z,7.33
2019-04-04T04:14:41.368Z,8.67
2019-04-04T04:19:48.830Z,7.87
2019-04-04T04:24:55.315Z,7.30
2019-04-04T04:30:06.101Z,7.47
2019-04-04T04:35:10.675Z,7.20
2019-04-04T04:40:17.025Z,7.72
2019-04-04T04:45:24.179Z,7.75
2019-04-04T04:50:30.486Z,7.60
2019-04-04T04:55:36.922Z,8.27
2019-04-04T05:00:45.183Z,7.10
2019-04-04T05:05:51.861Z,8.10
2019-04-04T05:10:58.217Z,8.83
2019-04-04T05:16:08.565Z,7.60
2019-04-04T05:21:24.365Z,7.87
2019-04-04T05:26:21.454Z,8.07
2019-04-04T05:31:28.305Z,7.63
2019-04-04T05:36:36.749Z,9.43
2019-04-04T05:41:42.767Z,14.43
2019-04-04T05:46:51.122Z,9.13
2019-04-04T05:51:57.336Z,8.00
2019-04-04T05:57:03.687Z,8.93
2019-04-04T06:02:11.542Z,7.75
2019-04-04T06:07:18.609Z,7.07
2019-04-04T06:12:25.662Z,7.28
2019-04-04T06:17:32.174Z,10.00
2019-04-04T06:22:38.613Z,8.43
2019-04-04T06:27:45.027Z,7.87
2019-04-04T06:32:51.337Z,8.30
2019-04-04T06:37:57.753Z,8.53
2019-04-04T06:43:07.441Z,8.47
2019-04-04T06:48:12.480Z,8.20
2019-04-04T06:53:20.396Z,9.33
2019-04-04T06:58:26.877Z,9.68
2019-04-04T07:03:33.418Z,9.20
2019-04-04T07:08:39.888Z,9.83
2019-04-04T07:13:46.136Z,10.03
2019-04-04T07:18:52.622Z,11.38
2019-04-04T07:24:00.133Z,10.37
2019-04-04T07:29:06.908Z,11.07
2019-04-04T07:34:14.230Z,11.43
2019-04-04T07:39:21.738Z,15.00
2019-04-04T07:44:28.173Z,9.27
2019-04-04T07:49:34.564Z,10.03
2019-04-04T07:54:40.979Z,8.73
2019-04-04T07:59:47.279Z,10.15
2019-04-04T08:04:53.569Z,9.68
2019-04-04T08:10:00.005Z,9.20
2019-04-04T08:15:07.458Z,8.73
2019-04-04T08:20:14.009Z,8.53
2019-04-04T08:25:20.316Z,11.07
2019-04-04T08:30:26.617Z,9.03
2019-04-04T08:35:33.039Z,7.60
2019-04-04T08:40:39.702Z,7.97
2019-04-04T08:45:47.833Z,7.33
2019-04-04T08:50:54.094Z,7.67
2019-04-04T08:56:00.527Z,6.95
2019-04-04T09:01:06.824Z,8.30
2019-04-04T09:06:13.202Z,7.93
2019-04-04T09:11:19.605Z,7.13
2019-04-04T09:16:25.872Z,7.08
2019-04-04T09:21:32.312Z,7.33
2019-04-04T09:26:38.818Z,6.83
2019-04-04T09:31:45.249Z,7.00
2019-04-04T09:36:51.615Z,7.03
2019-04-04T09:41:57.985Z,6.87
2019-04-04T09:47:05.662Z,6.63
2019-04-04T09:52:12.403Z,7.23
2019-04-04T09:57:18.773Z,6.78
2019-04-04T10:02:25.466Z,7.73
2019-04-04T10:07:31.819Z,7.00
2019-04-04T10:12:38.234Z,7.03
2019-04-04T10:17:45.872Z,6.90
2019-04-04T10:22:53.361Z,6.90
2019-04-04T10:27:59.836Z,6.55
2019-04-04T10:33:06.193Z,7.10
2019-04-04T10:38:12.522Z,7.00
2019-04-04T10:43:18.962Z,8.23
2019-04-04T10:48:36.857Z,6.43
2019-04-04T10:53:43.328Z,7.40
2019-04-04T10:58:49.667Z,6.83
2019-04-04T11:03:56.036Z,8.00
2019-04-04T11:09:02.359Z,7.30
2019-04-04T11:14:10.282Z,6.70
2019-04-04T11:19:16.559Z,7.03
2019-04-04T11:24:22.949Z,6.90
2019-04-04T11:29:30.389Z,7.03
2019-04-04T11:34:36.625Z,8.90
2019-04-04T11:39:54.068Z,7.63
2019-04-04T11:44:50.861Z,9.40
2019-04-04T11:49:57.309Z,11.50
2019-04-04T11:55:03.701Z,15.73
2019-04-04T12:00:12.007Z,17.97
2019-04-04T12:05:18.716Z,17.67
2019-04-04T12:10:24.947Z,20.10
2019-04-04T12:15:31.227Z,18.07
2019-04-04T12:20:37.610Z,19.37
2019-04-04T12:25:43.929Z,18.70
2019-04-04T12:30:50.265Z,19.13
2019-04-04T12:35:57.107Z,22.87
2019-04-04T12:41:03.512Z,20.55
2019-04-04T12:46:09.847Z,18.23
2019-04-04T12:51:16.275Z,14.10
2019-04-04T12:56:22.507Z,15.38
2019-04-04T13:01:28.756Z,15.43
2019-04-04T13:06:35.110Z,15.03
2019-04-04T13:11:42.621Z,18.12
2019-04-04T13:16:49.159Z,20.13
2019-04-04T13:21:55.572Z,19.30
2019-04-04T13:27:01.892Z,17.83
2019-04-04T13:32:08.442Z,19.27
2019-04-04T13:37:14.796Z,16.53
2019-04-04T13:42:21.269Z,18.57
2019-04-04T13:47:27.847Z,18.93
2019-04-04T13:52:34.124Z,21.57
2019-04-04T13:57:40.493Z,21.27
2019-04-04T14:02:46.780Z,22.47
2019-04-04T14:07:53.107Z,23.30
2019-04-04T14:12:59.800Z,25.47
2019-04-04T14:18:22.083Z,26.53
2019-04-04T14:23:28.644Z,25.07
2019-04-04T14:28:35.130Z,26.90
2019-04-04T14:33:41.424Z,27.67
2019-04-04T14:38:47.676Z,30.70
2019-04-04T14:43:53.925Z,30.23
2019-04-04T14:49:00.277Z,30.20
2019-04-04T14:54:06.620Z,27.63
2019-04-04T14:59:13.989Z,27.50
2019-04-04T15:04:20.659Z,26.00
2019-04-04T15:09:27.135Z,25.87
2019-04-04T15:14:33.652Z,24.60
2019-04-04T15:19:39.975Z,22.17
2019-04-04T15:24:46.480Z,22.87
2019-04-04T15:29:52.904Z,22.07
2019-04-04T15:34:59.194Z,21.50
2019-04-04T15:40:06.452Z,22.45
2019-04-04T15:45:14.358Z,23.83
2019-04-04T15:50:20.778Z,23.38
2019-04-04T15:55:27.115Z,23.03
2019-04-04T16:00:33.753Z,23.02
2019-04-04T16:05:40.341Z,23.67
2019-04-04T16:10:46.754Z,22.87
2019-04-04T16:15:53.340Z,23.97
2019-04-04T16:20:59.680Z,22.77
2019-04-04T16:26:06.087Z,21.33
2019-04-04T16:31:12.859Z,19.70
2019-04-04T16:36:19.275Z,19.97
2019-04-04T16:41:25.624Z,19.40
2019-04-04T16:46:32.913Z,16.53
2019-04-04T16:51:39.773Z,17.30
2019-04-04T16:56:46.210Z,19.63
2019-04-04T17:01:52.639Z,18.63
2019-04-04T17:06:59.123Z,19.90
2019-04-04T17:12:14.695Z,24.13
2019-04-04T17:17:13.985Z,20.25
2019-04-04T17:22:20.411Z,21.07
2019-04-04T17:27:26.960Z,21.00
2019-04-04T17:32:33.926Z,18.90
2019-04-04T17:37:41.446Z,17.93
2019-04-04T17:42:48.739Z,18.82
2019-04-04T17:47:55.097Z,19.50
2019-04-04T17:53:04.124Z,20.90
2019-04-04T17:58:11.536Z,19.57
2019-04-04T18:03:17.910Z,21.37
2019-04-04T18:08:24.205Z,21.93
2019-04-04T18:13:32.237Z,22.48
2019-04-04T18:18:39.938Z,21.77
2019-04-04T18:23:46.692Z,25.47
2019-04-04T18:28:54.238Z,24.90
2019-04-04T18:34:00.931Z,22.60
2019-04-04T18:39:08.750Z,23.15
2019-04-04T18:44:15.104Z,23.12
2019-04-04T18:49:21.499Z,24.97
2019-04-04T18:54:28.057Z,25.50
2019-04-04T18:59:34.520Z,26.10
2019-04-04T19:04:41.912Z,28.07
2019-04-04T19:09:48.257Z,26.63
2019-04-04T19:14:54.990Z,28.53
2019-04-04T19:20:02.242Z,27.65
2019-04-04T19:25:08.987Z,27.53
2019-04-04T19:30:17.788Z,27.77
2019-04-04T19:35:25.834Z,28.57
2019-04-04T19:40:32.258Z,29.50
2019-04-04T19:45:39.467Z,28.30
2019-04-04T19:50:45.852Z,29.45
2019-04-04T19:55:52.138Z,30.23
2019-04-04T20:00:58.727Z,28.97
2019-04-04T20:06:05.391Z,31.60
2019-04-04T20:11:11.671Z,29.40
2019-04-04T20:16:18.090Z,30.90
2019-04-04T20:21:24.503Z,31.40
2019-04-04T20:26:30.983Z,30.60
2019-04-04T20:31:38.247Z,34.07
2019-04-04T20:36:44.572Z,31.77
2019-04-04T20:41:50.771Z,31.87
2019-04-04T20:46:57.076Z,32.57
2019-04-04T20:52:03.292Z,33.35
2019-04-04T20:57:09.754Z,32.25
2019-04-04T21:02:16.056Z,34.33
2019-04-04T21:07:22.356Z,32.60
2019-04-04T21:12:28.681Z,33.27
2019-04-04T21:17:34.880Z,32.00
2019-04-04T21:22:41.194Z,31.80
2019-04-04T21:27:47.988Z,32.87
2019-04-04T21:32:54.322Z,32.37
2019-04-04T21:38:00.646Z,33.90
2019-04-04T21:43:07.086Z,34.13
2019-04-04T21:48:13.436Z,33.92
2019-04-04T21:53:19.790Z,34.88
2019-04-04T21:58:26.371Z,38.93
2019-04-04T22:03:32.765Z,39.50
2019-04-04T22:08:39.182Z,41.00
2019-04-04T22:13:45.925Z,40.77
2019-04-04T22:18:52.201Z,38.57
2019-04-04T22:23:58.824Z,39.97
2019-04-04T22:29:05.548Z,43.70
2019-04-04T22:34:11.866Z,42.43
2019-04-04T22:39:18.071Z,42.03
2019-04-04T22:44:34.106Z,39.70
2019-04-04T22:49:32.420Z,40.87
2019-04-04T22:54:38.765Z,39.95
2019-04-04T22:59:45.156Z,36.90
2019-04-04T23:04:51.765Z,37.23
2019-04-04T23:09:58.094Z,38.03
2019-04-04T23:15:05.894Z,40.63
2019-04-04T23:20:12.236Z,36.53
2019-04-04T23:25:18.543Z,41.08
2019-04-04T23:30:24.780Z,42.53
2019-04-04T23:35:31.121Z,45.50
2019-04-04T23:40:37.391Z,45.33
2019-04-04T23:45:43.792Z,42.30
2019-04-04T23:50:50.031Z,44.53
2019-04-04T23:55:56.301Z,47.90
